Time;durP1;ratioP1;P1;durP2;ratioP2;P2;SDS_P1;SDS_P2;PMS_P1;PMS_P2;Temp;Humidity;BMP_temperature;BMP_pressure;BME280_temperature;BME280_humidity;BME280_pressure;Samples;Min_cycle;Max_cycle;Signal;HPM_P1;HPM_P2
2023/06/22 00:01:13;;;;;;;15.80;14.20;;;22.80;99.90;;;;;;5053122;28;20449;-46
2023/06/22 00:03:39;;;;;;;13.90;12.70;;;22.70;99.90;;;;;;5052977;28;20436;-46
2023/06/22 00:06:06;;;;;;;14.37;12.90;;;22.70;99.90;;;;;;5052902;28;20934;-46
2023/06/22 00:08:33;;;;;;;14.43;13.23;;;22.70;99.90;;;;;;5052665;28;20820;-47
2023/06/22 00:11:01;;;;;;;15.47;13.97;;;22.70;99.90;;;;;;5052634;28;20456;-47
2023/06/22 00:13:27;;;;;;;14.47;12.93;;;22.60;99.90;;;;;;5052818;28;20944;-47
2023/06/22 00:15:54;;;;;;;15.60;14.27;;;22.60;99.90;;;;;;5052854;28;20448;-47
2023/06/22 00:18:20;;;;;;;14.50;13.30;;;22.60;99.90;;;;;;5052499;28;20440;-46
2023/06/22 00:20:47;;;;;;;15.60;14.20;;;22.50;99.90;;;;;;5052790;28;20900;-47
2023/06/22 00:23:15;;;;;;;15.03;13.77;;;22.50;99.90;;;;;;5052611;28;20454;-46
2023/06/22 00:25:42;;;;;;;14.47;13.07;;;22.50;99.90;;;;;;5052703;28;20440;-46
2023/06/22 00:28:10;;;;;;;15.73;14.27;;;22.40;99.90;;;;;;5051733;28;20851;-47
2023/06/22 00:30:37;;;;;;;15.67;14.23;;;22.40;99.90;;;;;;5052060;28;20514;-47
2023/06/22 00:33:07;;;;;;;16.03;14.47;;;22.40;99.90;;;;;;5052219;28;20435;-47
2023/06/22 00:35:34;;;;;;;15.60;14.23;;;22.30;99.90;;;;;;5051928;28;20432;-47
2023/06/22 00:38:03;;;;;;;15.97;14.60;;;22.30;99.90;;;;;;5034277;28;20953;-47
2023/06/22 00:40:31;;;;;;;16.07;14.67;;;22.20;99.90;;;;;;5051985;28;20453;-46
2023/06/22 00:42:58;;;;;;;15.80;14.50;;;22.20;99.90;;;;;;5052584;28;20430;-46
2023/06/22 00:45:27;;;;;;;16.87;15.23;;;22.20;99.90;;;;;;5034439;28;20472;-47
2023/06/22 00:47:56;;;;;;;13.97;12.67;;;22.20;99.90;;;;;;5033927;28;20471;-46
2023/06/22 00:50:24;;;;;;;16.13;14.43;;;22.10;99.90;;;;;;5033733;28;20466;-47
2023/06/22 00:52:53;;;;;;;15.20;13.90;;;22.10;99.90;;;;;;5038147;28;20446;-47
2023/06/22 00:55:21;;;;;;;15.47;13.87;;;22.10;99.90;;;;;;5056628;28;20441;-47
2023/06/22 00:57:48;;;;;;;15.97;14.50;;;22.10;99.90;;;;;;5039203;28;20463;-47
2023/06/22 01:00:20;;;;;;;17.03;13.20;;;22.00;99.90;;;;;;5038577;28;20467;-47
2023/06/22 01:02:51;;;;;;;14.90;13.60;;;22.00;99.90;;;;;;5056285;28;20947;-47
2023/06/22 01:05:19;;;;;;;16.20;14.70;;;22.00;99.90;;;;;;5055657;28;20430;-47
2023/06/22 01:08:00;;;;;;;16.57;15.00;;;22.00;99.90;;;;;;5037655;28;20474;-47
2023/06/22 01:10:35;;;;;;;14.20;13.00;;;21.90;99.90;;;;;;5055132;28;20877;-46
2023/06/22 01:13:05;;;;;;;15.60;14.07;;;21.90;99.90;;;;;;5037651;28;20519;-46
2023/06/22 01:15:38;;;;;;;14.47;12.97;;;21.90;99.90;;;;;;5039718;28;20431;-47
2023/06/22 01:18:09;;;;;;;16.33;14.73;;;21.90;99.90;;;;;;5055281;28;20435;-47
2023/06/22 01:20:38;;;;;;;15.80;14.33;;;21.90;99.90;;;;;;5037306;28;20467;-47
2023/06/22 01:23:12;;;;;;;17.23;15.53;;;21.80;99.90;;;;;;5037152;28;20457;-47
2023/06/22 01:25:48;;;;;;;16.27;14.73;;;21.90;99.90;;;;;;5037290;28;20532;-46
2023/06/22 01:28:26;;;;;;;18.17;16.57;;;21.80;99.90;;;;;;5036874;28;20905;-47
2023/06/22 01:31:03;;;;;;;16.03;14.50;;;21.80;99.90;;;;;;5037350;28;20934;-44
2023/06/22 01:33:34;;;;;;;18.20;16.70;;;21.80;99.90;;;;;;5055101;28;20497;-44
2023/06/22 01:36:01;;;;;;;17.23;15.43;;;21.70;99.90;;;;;;5037143;28;20501;-45
2023/06/22 01:38:33;;;;;;;18.23;16.53;;;21.70;99.90;;;;;;5036730;28;20450;-44
2023/06/22 01:41:01;;;;;;;16.93;15.43;;;21.70;99.90;;;;;;5036808;28;20501;-44
2023/06/22 01:43:29;;;;;;;16.40;14.90;;;21.70;99.90;;;;;;5037107;28;20990;-44
2023/06/22 01:46:00;;;;;;;17.87;16.30;;;21.60;99.90;;;;;;5055135;28;20526;-44
2023/06/22 01:48:28;;;;;;;18.33;16.73;;;21.70;99.90;;;;;;5036818;28;20873;-45
2023/06/22 01:50:55;;;;;;;18.53;16.93;;;21.60;99.90;;;;;;5036932;28;20498;-45
2023/06/22 01:53:22;;;;;;;16.37;14.97;;;21.60;99.90;;;;;;5037406;28;20454;-44
2023/06/22 01:55:52;;;;;;;18.17;16.57;;;21.60;99.90;;;;;;5054544;28;21033;-46
2023/06/22 01:58:21;;;;;;;18.60;16.90;;;21.60;99.90;;;;;;5036684;28;20935;-44
2023/06/22 02:00:52;;;;;;;18.77;16.80;;;21.50;99.90;;;;;;5036583;28;20479;-45
2023/06/22 02:03:26;;;;;;;17.83;16.20;;;21.60;99.90;;;;;;5035658;28;20962;-44
2023/06/22 02:05:59;;;;;;;17.27;15.57;;;21.60;99.90;;;;;;5054630;28;20458;-46
2023/06/22 02:08:29;;;;;;;17.80;16.30;;;21.60;99.90;;;;;;5036061;28;20476;-45
2023/06/22 02:10:57;;;;;;;17.90;16.20;;;21.60;99.90;;;;;;5054534;28;20452;-43
2023/06/22 02:13:25;;;;;;;17.87;16.20;;;21.50;99.90;;;;;;5054856;28;20449;-44
2023/06/22 02:15:52;;;;;;;17.43;15.83;;;21.50;99.90;;;;;;5036682;28;20553;-45
2023/06/22 02:18:20;;;;;;;17.80;16.30;;;21.50;99.90;;;;;;5035861;28;20560;-44
2023/06/22 02:20:47;;;;;;;17.60;16.00;;;21.50;99.90;;;;;;5054351;28;21112;-43
2023/06/22 02:23:13;;;;;;;17.00;15.50;;;21.50;99.90;;;;;;5036444;28;20443;-45
2023/06/22 02:25:44;;;;;;;17.83;16.23;;;21.40;99.90;;;;;;5036152;28;20991;-45
2023/06/22 02:28:11;;;;;;;16.77;15.37;;;21.30;99.90;;;;;;5035845;28;20446;-44
2023/06/22 02:30:38;;;;;;;18.33;16.70;;;21.40;99.90;;;;;;5036846;28;20884;-45
2023/06/22 02:33:07;;;;;;;17.83;16.13;;;21.40;99.90;;;;;;5037454;28;20493;-44
2023/06/22 02:35:36;;;;;;;17.20;15.67;;;21.40;99.90;;;;;;5053963;28;20527;-46
2023/06/22 02:38:04;;;;;;;18.57;16.80;;;21.50;99.90;;;;;;5053822;28;20431;-44
2023/06/22 02:40:31;;;;;;;19.10;17.40;;;21.50;99.90;;;;;;5035753;28;20472;-44
2023/06/22 02:43:01;;;;;;;18.30;16.60;;;21.50;99.90;;;;;;5053876;28;20940;-46
2023/06/22 02:45:28;;;;;;;18.13;16.43;;;21.50;99.90;;;;;;5053888;28;20824;-45
2023/06/22 02:47:55;;;;;;;19.10;17.27;;;21.50;99.90;;;;;;5035853;28;20445;-46
2023/06/22 02:50:22;;;;;;;18.33;16.43;;;21.70;99.90;;;;;;5053071;28;20577;-45
2023/06/22 02:52:50;;;;;;;19.63;17.63;;;21.50;99.90;;;;;;5035982;28;20503;-45
2023/06/22 02:55:17;;;;;;;18.80;17.00;;;21.50;99.90;;;;;;5035925;28;20833;-45
2023/06/22 02:57:52;;;;;;;18.27;16.63;;;21.50;99.90;;;;;;5035594;28;20462;-44
2023/06/22 03:00:19;;;;;;;17.73;16.23;;;21.60;99.90;;;;;;5035425;28;20569;-45
2023/06/22 03:02:49;;;;;;;19.33;17.37;;;21.60;99.90;;;;;;5035816;28;20927;-44
2023/06/22 03:05:17;;;;;;;16.90;15.43;;;21.60;99.90;;;;;;5035688;28;20456;-44
2023/06/22 03:07:45;;;;;;;19.10;17.50;;;21.60;99.90;;;;;;5035285;28;20446;-46
2023/06/22 03:10:15;;;;;;;17.93;16.30;;;21.60;99.90;;;;;;5035047;28;20569;-45
2023/06/22 03:12:42;;;;;;;18.43;16.53;;;21.60;99.90;;;;;;5035210;28;20546;-44
2023/06/22 03:15:11;;;;;;;17.90;16.10;;;21.60;99.90;;;;;;5034938;28;20507;-44
2023/06/22 03:17:38;;;;;;;16.80;15.30;;;21.60;99.90;;;;;;5035374;28;20458;-44
2023/06/22 03:20:09;;;;;;;20.20;16.67;;;21.50;99.90;;;;;;5035187;28;20482;-46
2023/06/22 03:22:35;;;;;;;18.20;16.40;;;21.60;99.90;;;;;;5035352;28;20962;-44
2023/06/22 03:25:02;;;;;;;17.30;15.73;;;21.60;99.90;;;;;;5035064;28;20458;-45
2023/06/22 03:27:30;;;;;;;17.60;16.00;;;21.60;99.90;;;;;;5035316;28;20454;-46
2023/06/22 03:29:57;;;;;;;15.97;14.57;;;21.60;99.90;;;;;;5052611;28;20493;-46
2023/06/22 03:32:25;;;;;;;16.63;15.20;;;21.60;99.90;;;;;;5035200;28;20540;-45
2023/06/22 03:34:51;;;;;;;16.40;14.97;;;21.60;99.90;;;;;;5053047;28;20435;-45
2023/06/22 03:37:18;;;;;;;15.37;14.07;;;21.60;99.90;;;;;;5035177;28;20457;-45
2023/06/22 03:39:45;;;;;;;17.90;14.37;;;21.60;99.90;;;;;;5035200;28;20473;-45
2023/06/22 03:42:12;;;;;;;15.33;13.97;;;21.70;99.90;;;;;;5034865;28;20561;-45
2023/06/22 03:44:41;;;;;;;15.50;14.17;;;21.70;99.90;;;;;;5034869;28;20512;-45
2023/06/22 03:47:08;;;;;;;13.93;12.73;;;21.60;99.90;;;;;;5035069;28;20468;-45
2023/06/22 03:49:36;;;;;;;14.87;13.47;;;21.70;99.90;;;;;;5035920;28;20943;-44
2023/06/22 03:52:03;;;;;;;15.13;13.63;;;21.90;99.90;;;;;;5052685;28;20560;-45
2023/06/22 03:54:30;;;;;;;14.63;13.13;;;21.70;99.90;;;;;;5052821;28;20459;-45
2023/06/22 03:56:58;;;;;;;14.20;13.00;;;21.80;99.90;;;;;;5052694;28;20855;-44
2023/06/22 03:59:25;;;;;;;13.23;12.00;;;21.80;99.90;;;;;;5051850;28;20512;-44
2023/06/22 04:01:54;;;;;;;13.63;12.30;;;21.80;99.90;;;;;;5052773;28;20427;-45
2023/06/22 04:04:21;;;;;;;14.60;13.30;;;21.90;99.90;;;;;;5052439;28;20530;-46
2023/06/22 04:06:47;;;;;;;13.30;12.20;;;21.90;99.90;;;;;;5052216;28;20408;-46
2023/06/22 04:09:14;;;;;;;14.60;13.10;;;22.00;99.90;;;;;;5051679;28;20477;-44
2023/06/22 04:11:41;;;;;;;13.93;12.73;;;22.00;99.90;;;;;;5052236;28;20969;-44
2023/06/22 04:14:07;;;;;;;13.57;12.30;;;22.10;99.90;;;;;;5052349;28;20438;-45
2023/06/22 04:16:34;;;;;;;13.57;12.37;;;22.10;99.90;;;;;;5052392;28;20957;-46
2023/06/22 04:19:02;;;;;;;11.80;10.80;;;22.20;99.90;;;;;;5051694;28;20430;-46
2023/06/22 04:21:28;;;;;;;12.90;11.67;;;22.30;99.90;;;;;;5052447;28;20533;-45
2023/06/22 04:23:55;;;;;;;10.63;9.63;;;22.40;99.90;;;;;;5052335;28;20449;-45
2023/06/22 04:26:22;;;;;;;11.60;10.37;;;22.40;99.90;;;;;;5055091;28;20462;-46
2023/06/22 04:28:51;;;;;;;10.60;9.57;;;22.60;99.90;;;;;;5056580;28;20442;-46
2023/06/22 04:31:18;;;;;;;12.50;9.67;;;22.60;99.90;;;;;;5056752;28;20486;-45
2023/06/22 04:33:45;;;;;;;10.30;9.30;;;22.70;99.90;;;;;;5039656;28;20486;-46
2023/06/22 04:36:14;;;;;;;10.60;9.60;;;22.80;99.90;;;;;;5057184;28;20432;-45
2023/06/22 04:38:42;;;;;;;10.53;9.53;;;22.90;99.90;;;;;;5057886;28;20436;-45
2023/06/22 04:41:10;;;;;;;10.93;9.83;;;23.00;99.90;;;;;;5057401;28;20463;-47
2023/06/22 04:43:36;;;;;;;9.97;8.97;;;23.20;99.90;;;;;;5057217;28;20440;-44
2023/06/22 04:46:04;;;;;;;11.37;9.23;;;23.30;99.90;;;;;;5057562;28;20414;-45
2023/06/22 04:48:32;;;;;;;12.87;8.40;;;23.20;99.90;;;;;;5056974;28;20706;-44
2023/06/22 04:51:04;;;;;;;8.47;7.63;;;23.30;99.90;;;;;;5056324;28;20484;-46
2023/06/22 04:53:32;;;;;;;9.97;8.03;;;23.40;99.90;;;;;;5056520;28;20440;-45
2023/06/22 04:55:59;;;;;;;13.30;6.80;;;23.70;99.90;;;;;;5057026;28;20441;-46
2023/06/22 04:58:28;;;;;;;10.10;5.80;;;23.80;99.90;;;;;;5055457;28;20470;-45
2023/06/22 05:00:56;;;;;;;6.60;5.93;;;23.90;99.90;;;;;;5055804;28;20469;-46
2023/06/22 05:03:25;;;;;;;5.57;4.93;;;24.00;99.80;;;;;;5038112;28;20454;-46
2023/06/22 05:05:52;;;;;;;6.57;5.97;;;24.10;99.40;;;;;;5037731;28;20958;-45
2023/06/22 05:08:19;;;;;;;7.80;5.13;;;24.10;98.80;;;;;;5055559;28;20454;-46
2023/06/22 05:10:47;;;;;;;6.23;5.63;;;24.10;98.30;;;;;;5055248;28;20576;-45
2023/06/22 05:13:13;;;;;;;6.40;5.80;;;24.10;98.20;;;;;;5055381;28;20429;-46
2023/06/22 05:15:40;;;;;;;5.87;5.23;;;24.10;97.90;;;;;;5055093;28;20445;-46
2023/06/22 05:18:07;;;;;;;5.77;5.13;;;24.40;97.90;;;;;;5055423;28;20426;-45
2023/06/22 05:20:35;;;;;;;6.77;5.23;;;24.40;97.70;;;;;;5054915;28;20458;-45
2023/06/22 05:23:02;;;;;;;6.57;5.90;;;24.70;97.60;;;;;;5054535;28;20526;-50
2023/06/22 05:25:32;;;;;;;8.77;5.73;;;24.70;97.30;;;;;;5055356;28;20469;-45
2023/06/22 05:28:00;;;;;;;6.40;5.57;;;24.50;97.00;;;;;;5054935;28;20574;-45
2023/06/22 05:30:28;;;;;;;6.60;5.00;;;24.70;97.10;;;;;;5055207;28;20493;-46
2023/06/22 05:32:55;;;;;;;6.17;5.50;;;24.70;97.00;;;;;;5054486;28;20441;-45
2023/06/22 05:35:21;;;;;;;7.30;5.50;;;24.80;97.00;;;;;;5054728;28;20529;-45
2023/06/22 05:37:48;;;;;;;7.50;4.97;;;24.90;97.00;;;;;;5054481;28;20426;-46
2023/06/22 05:40:15;;;;;;;5.80;5.20;;;24.70;96.80;;;;;;5054197;28;20886;-46
2023/06/22 05:42:42;;;;;;;5.73;5.23;;;24.80;96.90;;;;;;5054146;28;20529;-47
2023/06/22 05:45:10;;;;;;;11.30;6.43;;;24.80;96.90;;;;;;5054246;28;20439;-46
2023/06/22 05:47:37;;;;;;;9.30;5.93;;;24.70;96.80;;;;;;5054158;28;20884;-46
2023/06/22 05:50:06;;;;;;;8.73;6.27;;;24.70;96.80;;;;;;5054036;28;20650;-46
2023/06/22 05:52:33;;;;;;;9.30;5.63;;;24.60;96.90;;;;;;5054225;28;20473;-46
2023/06/22 05:55:00;;;;;;;5.53;5.03;;;24.60;97.00;;;;;;5054310;28;20449;-44
2023/06/22 05:57:27;;;;;;;10.03;5.70;;;24.70;96.60;;;;;;5054036;28;20526;-46
2023/06/22 05:59:56;;;;;;;5.47;4.97;;;24.70;96.40;;;;;;5035488;28;21003;-44
2023/06/22 06:02:25;;;;;;;6.67;5.63;;;24.90;96.30;;;;;;5036114;28;20517;-46
2023/06/22 06:04:52;;;;;;;8.87;6.63;;;25.00;96.10;;;;;;5053577;28;20442;-46
2023/06/22 06:07:19;;;;;;;6.80;5.70;;;25.20;95.80;;;;;;5053862;28;20435;-46
2023/06/22 06:09:45;;;;;;;10.47;5.70;;;25.30;95.70;;;;;;5053094;28;20482;-45
2023/06/22 06:12:13;;;;;;;6.30;5.70;;;25.50;95.60;;;;;;5053446;28;20434;-45
2023/06/22 06:14:39;;;;;;;6.33;5.70;;;25.50;95.40;;;;;;5035654;28;20465;-45
2023/06/22 06:17:09;;;;;;;6.20;5.30;;;25.60;95.40;;;;;;5053732;28;20431;-47
2023/06/22 06:19:37;;;;;;;10.10;5.83;;;25.60;95.00;;;;;;5053124;28;20530;-46
2023/06/22 06:22:04;;;;;;;6.50;5.90;;;25.70;94.70;;;;;;5035856;28;20457;-46
2023/06/22 06:24:31;;;;;;;7.67;5.20;;;25.80;94.50;;;;;;5053353;28;20443;-45
2023/06/22 06:26:58;;;;;;;6.50;5.10;;;25.90;94.20;;;;;;5053419;28;20423;-45
2023/06/22 06:29:24;;;;;;;9.73;5.20;;;26.00;93.90;;;;;;5052638;28;20441;-45
2023/06/22 06:31:51;;;;;;;9.53;4.90;;;26.10;93.60;;;;;;5053014;28;20437;-47
2023/06/22 06:34:17;;;;;;;5.73;4.93;;;26.10;93.40;;;;;;5053293;28;20450;-47
2023/06/22 06:36:45;;;;;;;8.53;4.43;;;26.20;93.10;;;;;;5053178;28;20430;-45
2023/06/22 06:39:12;;;;;;;6.50;4.30;;;26.20;92.70;;;;;;5053001;28;20471;-45
2023/06/22 06:41:39;;;;;;;4.67;4.20;;;26.20;92.30;;;;;;5053024;28;20963;-45
2023/06/22 06:44:14;;;;;;;6.80;3.90;;;26.30;92.30;;;;;;5035846;28;20450;-46
2023/06/22 06:46:41;;;;;;;12.63;4.80;;;26.30;92.00;;;;;;5053403;28;20441;-47
2023/06/22 06:49:08;;;;;;;6.43;4.40;;;26.40;91.80;;;;;;5051857;28;20840;-46
2023/06/22 06:51:35;;;;;;;6.43;5.40;;;26.40;91.40;;;;;;5052848;28;20482;-45
2023/06/22 06:54:04;;;;;;;9.53;4.77;;;26.40;91.10;;;;;;5053918;28;20525;-46
2023/06/22 06:56:32;;;;;;;5.00;3.90;;;26.50;91.20;;;;;;5052986;28;20450;-46
2023/06/22 06:58:59;;;;;;;6.37;4.17;;;26.50;90.90;;;;;;5035021;28;20457;-45
2023/06/22 07:01:26;;;;;;;8.97;4.00;;;26.40;89.90;;;;;;5052924;28;20450;-45
2023/06/22 07:03:53;;;;;;;5.90;4.30;;;26.40;90.00;;;;;;5053416;28;20438;-46
2023/06/22 07:06:20;;;;;;;4.03;3.50;;;26.40;90.10;;;;;;5053103;28;20427;-47
2023/06/22 07:08:46;;;;;;;7.30;3.50;;;26.30;90.10;;;;;;5052732;28;20427;-45
2023/06/22 07:11:14;;;;;;;3.87;3.37;;;26.30;89.10;;;;;;5052901;28;20555;-45
2023/06/22 07:13:41;;;;;;;7.17;4.10;;;26.40;89.20;;;;;;5053158;28;20431;-46
2023/06/22 07:16:07;;;;;;;9.30;4.20;;;26.50;88.80;;;;;;5052870;28;20548;-45
2023/06/22 07:18:34;;;;;;;3.93;3.40;;;26.50;88.10;;;;;;5052731;28;20517;-46
2023/06/22 07:21:00;;;;;;;6.50;3.93;;;26.60;87.80;;;;;;5052304;28;20475;-47
2023/06/22 07:23:27;;;;;;;6.90;3.93;;;26.70;86.50;;;;;;5034351;28;20457;-46
2023/06/22 07:25:54;;;;;;;9.60;4.37;;;26.90;86.60;;;;;;5034466;28;20545;-47
2023/06/22 07:28:22;;;;;;;4.90;3.63;;;27.00;86.60;;;;;;5052185;28;20440;-48
2023/06/22 07:30:48;;;;;;;4.33;3.87;;;27.10;86.00;;;;;;5052880;28;20576;-46
2023/06/22 07:33:15;;;;;;;4.77;3.70;;;27.20;84.50;;;;;;5052380;28;20433;-46
2023/06/22 07:35:41;;;;;;;6.00;3.80;;;27.30;83.50;;;;;;5052063;28;20439;-44
2023/06/22 07:38:09;;;;;;;6.20;3.20;;;27.50;82.90;;;;;;5052577;28;20797;-46
2023/06/22 07:40:35;;;;;;;5.80;3.80;;;27.60;81.40;;;;;;5052315;28;20458;-46
2023/06/22 07:43:03;;;;;;;4.90;3.40;;;27.60;78.80;;;;;;5052085;28;20433;-45
2023/06/22 07:45:33;;;;;;;4.37;3.50;;;27.60;78.60;;;;;;5052037;28;20579;-46
2023/06/22 07:47:59;;;;;;;4.63;2.80;;;27.80;78.40;;;;;;5051728;28;20509;-45
2023/06/22 07:50:26;;;;;;;6.03;3.83;;;27.80;75.80;;;;;;5051523;28;20486;-45
2023/06/22 07:52:53;;;;;;;4.47;3.40;;;27.80;75.70;;;;;;5052077;28;20461;-48
2023/06/22 07:55:19;;;;;;;6.33;3.70;;;27.80;76.30;;;;;;5052368;28;20482;-45
2023/06/22 07:57:51;;;;;;;8.70;3.60;;;28.00;76.10;;;;;;5052211;28;20448;-45
2023/06/22 08:00:18;;;;;;;5.90;3.60;;;28.10;75.90;;;;;;5051948;28;20519;-44
2023/06/22 08:02:47;;;;;;;4.10;3.27;;;28.30;75.80;;;;;;5052059;28;20435;-46
2023/06/22 08:05:15;;;;;;;7.37;4.03;;;28.40;74.50;;;;;;5051839;28;20875;-45
2023/06/22 08:07:42;;;;;;;5.23;3.73;;;28.40;74.30;;;;;;5052461;28;20434;-46
2023/06/22 08:10:11;;;;;;;5.10;3.00;;;28.50;73.50;;;;;;5051583;28;20461;-45
2023/06/22 08:12:38;;;;;;;5.80;3.17;;;28.50;72.60;;;;;;5033673;28;20453;-46
2023/06/22 08:15:07;;;;;;;5.43;3.30;;;28.60;72.60;;;;;;5051606;28;20824;-46
2023/06/22 08:17:34;;;;;;;6.70;3.83;;;28.60;72.20;;;;;;5051773;28;20555;-46
2023/06/22 08:20:05;;;;;;;4.90;3.40;;;28.70;71.30;;;;;;5051197;28;20455;-46
2023/06/22 08:22:33;;;;;;;5.37;3.13;;;28.70;70.80;;;;;;5051920;28;20499;-46
2023/06/22 08:24:59;;;;;;;5.60;3.20;;;28.80;70.60;;;;;;5051992;28;20923;-45
2023/06/22 08:27:28;;;;;;;5.03;3.60;;;28.80;70.20;;;;;;5051570;28;20432;-46
2023/06/22 08:29:58;;;;;;;4.10;2.97;;;28.90;70.00;;;;;;5051210;28;20556;-44
2023/06/22 08:32:26;;;;;;;4.10;3.40;;;28.90;69.10;;;;;;5051943;28;20431;-45
2023/06/22 08:34:52;;;;;;;3.17;2.80;;;28.90;68.70;;;;;;5051889;28;20466;-45
2023/06/22 08:37:23;;;;;;;5.67;3.77;;;29.00;67.90;;;;;;5051769;28;20530;-46
2023/06/22 08:39:50;;;;;;;3.53;3.23;;;28.90;67.40;;;;;;5030917;28;20543;-46
2023/06/22 08:42:16;;;;;;;3.77;3.43;;;29.00;67.60;;;;;;5054271;28;20445;-46
2023/06/22 08:44:43;;;;;;;5.07;3.60;;;29.00;67.40;;;;;;5052196;28;20554;-47
2023/06/22 08:47:10;;;;;;;7.57;3.40;;;29.10;68.60;;;;;;5051567;28;20438;-45
2023/06/22 08:49:36;;;;;;;3.87;3.30;;;29.20;67.90;;;;;;5050946;28;20465;-46
2023/06/22 08:52:03;;;;;;;3.87;3.57;;;29.20;67.80;;;;;;5051945;28;20482;-45
2023/06/22 08:54:32;;;;;;;6.90;3.40;;;29.20;67.40;;;;;;5034472;28;20480;-46
2023/06/22 08:56:59;;;;;;;5.67;3.73;;;29.20;67.20;;;;;;5049651;28;20512;-45
2023/06/22 08:59:26;;;;;;;4.40;3.67;;;29.20;67.20;;;;;;5050509;28;20438;-44
2023/06/22 09:01:52;;;;;;;4.63;3.77;;;29.20;66.60;;;;;;5051055;28;20431;-46
2023/06/22 09:04:21;;;;;;;8.43;3.80;;;29.30;66.60;;;;;;5050984;28;20962;-44
2023/06/22 09:06:49;;;;;;;5.27;4.40;;;29.40;66.50;;;;;;5050568;28;20467;-47
2023/06/22 09:09:17;;;;;;;4.10;3.30;;;29.30;66.20;;;;;;5050498;28;20462;-44
2023/06/22 09:11:45;;;;;;;5.27;3.47;;;29.40;65.80;;;;;;5051691;28;20482;-44
2023/06/22 09:14:12;;;;;;;4.60;3.87;;;29.40;65.20;;;;;;5054890;28;20434;-44
2023/06/22 09:16:39;;;;;;;4.03;3.70;;;29.40;64.80;;;;;;5054725;28;20442;-47
2023/06/22 09:19:05;;;;;;;4.00;3.60;;;29.40;64.10;;;;;;5054325;28;20977;-46
2023/06/22 09:21:32;;;;;;;3.67;3.30;;;29.50;63.80;;;;;;5054328;28;20454;-46
2023/06/22 09:23:58;;;;;;;4.30;3.37;;;29.40;62.20;;;;;;5054770;28;20435;-45
2023/06/22 09:26:25;;;;;;;4.00;3.70;;;29.50;62.70;;;;;;5036601;28;20809;-46
2023/06/22 09:28:53;;;;;;;4.53;3.20;;;29.60;62.00;;;;;;5054180;28;20432;-46
2023/06/22 09:31:25;;;;;;;3.43;3.13;;;29.70;61.00;;;;;;5052956;28;20487;-46
2023/06/22 09:33:52;;;;;;;6.27;3.37;;;29.60;60.70;;;;;;5053233;28;20481;-45
2023/06/22 09:36:18;;;;;;;3.70;3.30;;;29.60;61.30;;;;;;5052397;28;20446;-45
2023/06/22 09:38:45;;;;;;;4.23;3.50;;;29.60;61.70;;;;;;5052705;28;20932;-46
2023/06/22 09:41:11;;;;;;;5.50;3.60;;;29.60;61.50;;;;;;5052734;28;20447;-45
2023/06/22 09:43:38;;;;;;;4.00;2.97;;;29.60;60.20;;;;;;5053010;28;20540;-46
2023/06/22 09:46:07;;;;;;;3.50;3.20;;;29.60;59.70;;;;;;5052829;28;20442;-45
2023/06/22 09:48:33;;;;;;;3.17;2.87;;;29.50;59.70;;;;;;5052286;28;20427;-46
2023/06/22 09:51:00;;;;;;;4.67;3.80;;;29.40;59.80;;;;;;5052383;28;20479;-45
2023/06/22 09:53:26;;;;;;;6.00;4.00;;;29.30;60.00;;;;;;5050305;28;20450;-46
2023/06/22 09:55:53;;;;;;;6.77;5.13;;;29.30;61.10;;;;;;5045768;28;20915;-45
2023/06/22 09:58:20;;;;;;;5.80;4.20;;;29.20;62.20;;;;;;5049998;28;20445;-47
2023/06/22 10:00:46;;;;;;;5.30;4.00;;;29.20;62.90;;;;;;5052436;28;20469;-47
2023/06/22 10:03:14;;;;;;;5.60;3.97;;;29.20;62.90;;;;;;5052040;28;20944;-45
2023/06/22 10:05:41;;;;;;;4.20;3.80;;;29.20;62.30;;;;;;5052102;28;20453;-46
2023/06/22 10:08:09;;;;;;;4.87;3.40;;;29.10;61.70;;;;;;5052930;28;20439;-46
2023/06/22 10:10:36;;;;;;;3.93;3.53;;;29.00;61.60;;;;;;5054364;28;20467;-48
2023/06/22 10:13:11;;;;;;;5.40;3.07;;;29.00;61.00;;;;;;5064177;28;20792;-46
2023/06/22 10:15:38;;;;;;;4.67;3.57;;;29.00;61.20;;;;;;5044172;28;20466;-45
2023/06/22 10:18:05;;;;;;;3.87;3.47;;;29.00;61.40;;;;;;5052403;28;20927;-44
2023/06/22 10:20:33;;;;;;;4.60;3.80;;;28.90;61.20;;;;;;5034180;28;20550;-45
2023/06/22 10:22:59;;;;;;;9.60;6.10;;;29.00;61.70;;;;;;5033490;28;20454;-45
2023/06/22 10:25:28;;;;;;;5.17;4.30;;;29.00;61.90;;;;;;5052082;28;20997;-47
2023/06/22 10:27:55;;;;;;;8.03;4.30;;;29.00;62.20;;;;;;5052377;28;20450;-45
2023/06/22 10:30:21;;;;;;;6.40;4.43;;;29.00;62.70;;;;;;5016416;28;1032651;-45
2023/06/22 10:32:48;;;;;;;5.20;3.67;;;28.90;62.80;;;;;;5053102;28;20223;-45
2023/06/22 10:35:15;;;;;;;4.23;3.57;;;28.90;63.10;;;;;;5053435;28;20438;-47
2023/06/22 10:37:44;;;;;;;7.33;4.30;;;28.90;63.20;;;;;;5053255;28;20435;-45
2023/06/22 10:40:12;;;;;;;4.30;3.53;;;28.90;63.50;;;;;;5050571;28;20446;-46
2023/06/22 10:42:39;;;;;;;4.40;4.00;;;28.90;63.50;;;;;;5047679;28;20550;-46
2023/06/22 10:45:07;;;;;;;4.30;3.90;;;28.90;63.40;;;;;;5052971;28;20456;-45
2023/06/22 10:47:34;;;;;;;5.03;4.40;;;29.00;63.50;;;;;;5052997;28;20446;-45
2023/06/22 10:50:01;;;;;;;5.43;3.77;;;29.00;63.50;;;;;;5052466;28;20450;-46
2023/06/22 10:52:27;;;;;;;5.07;4.30;;;29.10;63.30;;;;;;5052283;28;20991;-45
2023/06/22 10:54:55;;;;;;;6.27;3.80;;;29.10;63.20;;;;;;5034952;28;20450;-45
2023/06/22 10:57:22;;;;;;;4.03;3.57;;;29.10;62.90;;;;;;5051050;28;20439;-45
2023/06/22 10:59:49;;;;;;;4.27;3.80;;;29.10;62.50;;;;;;5035166;28;20471;-47
2023/06/22 11:02:16;;;;;;;5.77;3.90;;;29.00;62.40;;;;;;5050566;28;20434;-45
2023/06/22 11:04:42;;;;;;;4.10;3.50;;;28.90;62.70;;;;;;5052516;28;20479;-45
2023/06/22 11:07:10;;;;;;;5.43;3.70;;;28.80;63.10;;;;;;5052123;28;20439;-45
2023/06/22 11:09:38;;;;;;;8.40;4.43;;;28.70;63.40;;;;;;5052168;28;20767;-45
2023/06/22 11:12:07;;;;;;;4.83;3.87;;;28.60;63.80;;;;;;5052488;28;20474;-44
2023/06/22 11:14:34;;;;;;;5.63;4.07;;;28.60;63.50;;;;;;5052302;28;20440;-46
2023/06/22 11:17:00;;;;;;;4.20;3.80;;;28.60;63.50;;;;;;5052091;28;20846;-45
2023/06/22 11:19:27;;;;;;;4.40;4.00;;;28.60;63.50;;;;;;5051787;28;20434;-45
2023/06/22 11:21:54;;;;;;;4.63;4.23;;;28.60;63.40;;;;;;5034205;28;20546;-46
2023/06/22 11:24:20;;;;;;;5.13;4.20;;;28.60;63.20;;;;;;5052414;28;20900;-46
2023/06/22 11:26:47;;;;;;;6.77;4.60;;;28.60;63.00;;;;;;5053500;28;20525;-45
2023/06/22 11:29:15;;;;;;;5.00;4.50;;;28.70;63.00;;;;;;5051745;28;20815;-45
2023/06/22 11:31:43;;;;;;;4.03;3.73;;;28.80;62.40;;;;;;5052017;28;20487;-45
2023/06/22 11:34:09;;;;;;;4.80;3.50;;;28.90;62.30;;;;;;5051953;28;20752;-45
2023/06/22 11:36:36;;;;;;;6.30;3.77;;;28.90;62.00;;;;;;5051854;28;20460;-45
2023/06/22 11:39:04;;;;;;;4.00;3.60;;;28.90;61.60;;;;;;5050383;28;20454;-46
2023/06/22 11:41:31;;;;;;;4.30;3.90;;;28.90;61.60;;;;;;5051296;28;20560;-45
2023/06/22 11:43:58;;;;;;;7.37;4.07;;;28.90;61.40;;;;;;5051939;28;20441;-46
2023/06/22 11:46:26;;;;;;;4.00;3.50;;;29.10;61.40;;;;;;5033903;28;20462;-46
2023/06/22 11:48:52;;;;;;;4.90;4.50;;;29.10;60.90;;;;;;5051755;28;21004;-47
2023/06/22 11:51:19;;;;;;;4.80;4.40;;;29.20;60.90;;;;;;5049466;28;20684;-45
2023/06/22 11:53:45;;;;;;;6.70;6.00;;;29.10;60.40;;;;;;5050076;28;20814;-45
2023/06/22 11:56:12;;;;;;;5.87;4.00;;;29.10;60.60;;;;;;5049479;28;20776;-46
2023/06/22 11:58:38;;;;;;;4.57;3.90;;;29.10;60.20;;;;;;5049452;28;20442;-47
2023/06/22 12:01:05;;;;;;;9.57;4.20;;;29.10;60.10;;;;;;5049138;28;20454;-47
2023/06/22 12:03:33;;;;;;;4.57;4.17;;;29.10;60.10;;;;;;5046858;28;20505;-46
2023/06/22 12:06:00;;;;;;;5.30;4.80;;;29.20;60.40;;;;;;5030678;28;20431;-46
2023/06/22 12:08:27;;;;;;;6.50;3.63;;;29.20;60.20;;;;;;5031492;28;20528;-47
2023/06/22 12:10:54;;;;;;;5.07;4.20;;;29.20;59.90;;;;;;5031920;28;20517;-46
2023/06/22 12:13:21;;;;;;;4.50;3.53;;;29.00;59.80;;;;;;5031555;28;20996;-46
2023/06/22 12:15:47;;;;;;;4.40;3.50;;;28.90;59.90;;;;;;5031799;28;20443;-45
2023/06/22 12:18:14;;;;;;;6.33;4.10;;;28.90;60.10;;;;;;5031034;28;20440;-45
2023/06/22 12:20:42;;;;;;;5.23;4.50;;;28.90;60.20;;;;;;5031276;28;20462;-45
2023/06/22 12:23:09;;;;;;;4.60;4.20;;;28.90;60.30;;;;;;5031487;28;20787;-47
2023/06/22 12:25:36;;;;;;;5.70;4.30;;;29.10;60.10;;;;;;5031417;28;20973;-46
2023/06/22 12:28:02;;;;;;;5.80;4.60;;;29.10;60.30;;;;;;5031468;28;21051;-45
2023/06/22 12:30:29;;;;;;;4.97;4.47;;;29.10;60.20;;;;;;5031216;28;20494;-46
2023/06/22 12:32:55;;;;;;;6.70;3.77;;;29.20;60.50;;;;;;5031283;28;20474;-45
2023/06/22 12:35:22;;;;;;;4.37;3.97;;;29.20;60.20;;;;;;5060587;28;20513;-46
2023/06/22 12:37:50;;;;;;;7.13;4.20;;;29.30;60.00;;;;;;5071076;28;20532;-47
2023/06/22 12:40:16;;;;;;;5.70;4.73;;;29.20;59.90;;;;;;5071121;28;20454;-44